Hannover, Germany

4:32 AM CEST on October 02, 2014 (GMT +0200)
ILOWERSA5 | Change Station
CLOSE
Current Station
Personal Weather Station
Location: Hannover, LOWER SAXONY
Elevation: 194 ft
Nearby Weather Stations

Elev 194 ft 52.40 °N, 9.73 °E | Updated 1 second ago

Patches of Fog
Patches Fog Mist
57.0 °F
Feels Like 57.0 °F
N
0.0
Wind Variable Wind from South
Gusts 1.0 mph

Today
High -- | Low -- °F
--% Chance of Precip.
Yesterday
High -- | Low -- °F
Precip. -- in
7:23 AM 6:56 PM
First Quarter, 53% visible
Pressure 30.36 in
Visibility 0.6 miles
Clouds Few 3500 ft
Dew Point 55 °F
Humidity 94%
Rainfall 0.00 in
Snow Depth Not available.
UV 0 out of 12
Pollen Not available.
Air Quality Not available.
Flu Activity Not available.
METAR EDDV 020220Z 00000KT 1000 0200W R27R/1400VP2000D R27L/P2000N BCFG BR FEW035 12/12 Q1028

More Conditions Fewer Conditions

Pressure 30.36 in
Visibility 0.6 miles
Clouds Few 3500 ft
Dew Point 55 °F
Humidity 94%
Rainfall 0.00 in
Snow Depth Not available.
UV 0 out of 12
Pollen Not available.
Air Quality Not available.
Flu Activity Not available.
METAR EDDV 020220Z 00000KT 1000 0200W R27R/1400VP2000D R27L/P2000N BCFG BR FEW035 12/12 Q1028

More Conditions Fewer Conditions

10-Day Weather Forecast

Almanac

Astronomy

Oct. 02, 2014 Rise Set
Actual Time 7:23 AM CEST 6:56 PM CEST
Civil Twilight 6:49 AM CEST 7:30 PM CEST
Nautical Twilight 6:09 AM CEST 8:09 PM CEST
Astronomical Twilight 5:29 AM CEST 8:50 PM CEST
Moon 3:30 PM CEST No Moon Set
Length of Visible Light 12h 40m
Length of Day
11h 32m
Tomorrow will be 4m 3s shorter.
First Quarter, 53% of the Moon is Illuminated
Oct 1
First Quarter
Oct 8
Full
Oct 15
Last Quarter
Oct 23
New
Oct 30
First Quarter

Yesterday's Extremes

Country Highs Country Lows

Community

WunderPhotos

Upload Photos

1,758,147 photos uploaded!

WunderBlogs® & News

Nearby

Snow Depth

Not available.

Earthquake Activity

City Distance Mag. Time & Date
No recent earthquake activity has been reported nearby.
Minimum magnitude displayed is 2.5.

Coastal Water Temperatures

Place Temperature
No Stations Reporting

Nearby Weather Stations